Accueil
METAR-TAF:

METAR-TAF

Aéroports :

Aéroport international de Koweït

Koweït, Koweït

latitude: 29-13N, longitude: 047-59E, altitude: 55 m

Observation

Le bulletin a été fait il y a 10 minutes, à 23:00 UTC
Vent calme
Température 32°C
Humidité 15%
Pression 999 hPa
Visibilité 10 km ou plus
pas de nuages en-dessous de 1500 mètres et pas de cumulonimbus.

METAR: OKBK 162300Z 00000KT CAVOK 32/02 Q0999 NOSIG

Heure: 02:10 (23:10 UTC)

Prévision

Le bulletin a été fait il y a 6 heures et 25 minutes, à 16:45 UTC
Prévision valable du 16 à 18 UTC au 17 à 24 UTC
Vent 8 kt de nord/nord-ouest
Visibilité: 8000 m
Ciel clair

TAF: OKBK 161645Z 1618/1724 33008KT 8000 SKC

Observations et prévisions météorologiques de plus de 4000 aéroports (messages METAR et TAF).

Les stations disponibles sont représentées par des disques jaunes et rouges sur la carte.

Passer la souris dessus pour voir le nom de la station.

Cliquer dessus pour voir les observations et prévisions météorologiques.

Pour changer de carte: cliquez sur les boutons verts avec une croix noire pour zoomer, sur le bouton vert avec un tiret pour effectuer un zoom arrière, ou sur les flèches vertes pour les cartes adjacentes.


METAR-TAF: